sensor_id;sensor_type;location;lat;lon;timestamp;P1;durP1;ratioP1;P2;durP2;ratioP2
49450;SDS011;35336;48.400;10.886;2024-03-02T00:00:11;17.67;;;14.47;;
49450;SDS011;35336;48.400;10.886;2024-03-02T00:00:26;18.27;;;14.88;;
49450;SDS011;35336;48.400;10.886;2024-03-02T00:00:41;18.77;;;14.93;;
49450;SDS011;35336;48.400;10.886;2024-03-02T00:00:57;18.27;;;14.37;;
49450;SDS011;35336;48.400;10.886;2024-03-02T00:01:12;16.97;;;13.77;;
49450;SDS011;35336;48.400;10.886;2024-03-02T00:01:27;17.23;;;14.03;;
49450;SDS011;35336;48.400;10.886;2024-03-02T00:01:45;16.77;;;14.15;;
49450;SDS011;35336;48.400;10.886;2024-03-02T00:02:01;16.13;;;14.15;;
49450;SDS011;35336;48.400;10.886;2024-03-02T00:02:16;16.47;;;14.07;;
49450;SDS011;35336;48.400;10.886;2024-03-02T00:02:46;16.25;;;13.73;;
49450;SDS011;35336;48.400;10.886;2024-03-02T00:03:03;17.58;;;14.30;;
49450;SDS011;35336;48.400;10.886;2024-03-02T00:03:19;16.00;;;13.73;;
49450;SDS011;35336;48.400;10.886;2024-03-02T00:03:34;16.02;;;14.00;;
49450;SDS011;35336;48.400;10.886;2024-03-02T00:03:51;16.45;;;14.30;;
49450;SDS011;35336;48.400;10.886;2024-03-02T00:04:06;16.70;;;14.33;;
49450;SDS011;35336;48.400;10.886;2024-03-02T00:04:25;16.45;;;14.02;;
49450;SDS011;35336;48.400;10.886;2024-03-02T00:04:42;16.77;;;14.32;;
49450;SDS011;35336;48.400;10.886;2024-03-02T00:04:59;17.30;;;14.48;;
49450;SDS011;35336;48.400;10.886;2024-03-02T00:05:16;16.67;;;13.98;;
49450;SDS011;35336;48.400;10.886;2024-03-02T00:05:35;17.45;;;14.05;;
49450;SDS011;35336;48.400;10.886;2024-03-02T00:05:50;17.58;;;14.18;;
49450;SDS011;35336;48.400;10.886;2024-03-02T00:06:06;18.17;;;14.73;;
49450;SDS011;35336;48.400;10.886;2024-03-02T00:06:21;17.65;;;15.15;;
49450;SDS011;35336;48.400;10.886;2024-03-02T00:06:39;17.10;;;14.50;;
49450;SDS011;35336;48.400;10.886;2024-03-02T00:06:54;16.80;;;14.20;;
49450;SDS011;35336;48.400;10.886;2024-03-02T00:07:10;16.90;;;14.45;;
49450;SDS011;35336;48.400;10.886;2024-03-02T00:07:29;16.92;;;14.48;;
49450;SDS011;35336;48.400;10.886;2024-03-02T00:07:45;17.37;;;14.70;;
49450;SDS011;35336;48.400;10.886;2024-03-02T00:08:03;18.30;;;14.90;;
49450;SDS011;35336;48.400;10.886;2024-03-02T00:08:22;17.85;;;14.82;;
49450;SDS011;35336;48.400;10.886;2024-03-02T00:08:41;17.63;;;15.23;;
49450;SDS011;35336;48.400;10.886;2024-03-02T00:08:57;17.60;;;14.80;;
49450;SDS011;35336;48.400;10.886;2024-03-02T00:09:13;18.02;;;14.45;;
49450;SDS011;35336;48.400;10.886;2024-03-02T00:09:30;17.08;;;14.57;;
49450;SDS011;35336;48.400;10.886;2024-03-02T00:09:45;16.47;;;14.13;;
49450;SDS011;35336;48.400;10.886;2024-03-02T00:10:00;17.63;;;14.60;;
49450;SDS011;35336;48.400;10.886;2024-03-02T00:10:24;18.17;;;14.68;;
49450;SDS011;35336;48.400;10.886;2024-03-02T00:10:44;16.92;;;14.75;;
49450;SDS011;35336;48.400;10.886;2024-03-02T00:11:00;15.98;;;14.27;;
49450;SDS011;35336;48.400;10.886;2024-03-02T00:11:15;15.65;;;13.80;;
49450;SDS011;35336;48.400;10.886;2024-03-02T00:11:33;16.80;;;14.40;;
49450;SDS011;35336;48.400;10.886;2024-03-02T00:11:52;17.33;;;14.25;;
49450;SDS011;35336;48.400;10.886;2024-03-02T00:12:07;17.23;;;14.13;;
49450;SDS011;35336;48.400;10.886;2024-03-02T00:12:22;17.00;;;14.23;;
49450;SDS011;35336;48.400;10.886;2024-03-02T00:12:38;17.73;;;14.68;;
49450;SDS011;35336;48.400;10.886;2024-03-02T00:12:54;18.48;;;14.77;;
49450;SDS011;35336;48.400;10.886;2024-03-02T00:13:11;18.42;;;14.98;;
49450;SDS011;35336;48.400;10.886;2024-03-02T00:13:27;17.65;;;14.55;;
49450;SDS011;35336;48.400;10.886;2024-03-02T00:13:46;17.63;;;14.20;;
49450;SDS011;35336;48.400;10.886;2024-03-02T00:14:01;18.40;;;14.60;;
49450;SDS011;35336;48.400;10.886;2024-03-02T00:14:16;17.83;;;14.37;;
49450;SDS011;35336;48.400;10.886;2024-03-02T00:14:32;16.40;;;14.33;;
49450;SDS011;35336;48.400;10.886;2024-03-02T00:14:47;15.50;;;13.80;;
49450;SDS011;35336;48.400;10.886;2024-03-02T00:15:04;16.23;;;13.63;;
49450;SDS011;35336;48.400;10.886;2024-03-02T00:15:47;18.27;;;14.35;;
49450;SDS011;35336;48.400;10.886;2024-03-02T00:16:03;17.60;;;14.43;;
49450;SDS011;35336;48.400;10.886;2024-03-02T00:16:19;17.30;;;14.27;;
49450;SDS011;35336;48.400;10.886;2024-03-02T00:16:34;16.47;;;14.07;;
49450;SDS011;35336;48.400;10.886;2024-03-02T00:16:50;16.27;;;14.05;;
49450;SDS011;35336;48.400;10.886;2024-03-02T00:17:08;17.45;;;14.70;;
49450;SDS011;35336;48.400;10.886;2024-03-02T00:17:38;17.63;;;13.88;;
49450;SDS011;35336;48.400;10.886;2024-03-02T00:17:56;16.13;;;13.48;;
49450;SDS011;35336;48.400;10.886;2024-03-02T00:18:18;16.00;;;13.48;;
49450;SDS011;35336;48.400;10.886;2024-03-02T00:18:39;15.98;;;13.68;;
49450;SDS011;35336;48.400;10.886;2024-03-02T00:18:55;16.17;;;14.07;;
49450;SDS011;35336;48.400;10.886;2024-03-02T00:19:10;16.33;;;14.57;;
49450;SDS011;35336;48.400;10.886;2024-03-02T00:19:26;16.02;;;14.00;;
49450;SDS011;35336;48.400;10.886;2024-03-02T00:19:41;17.33;;;14.18;;
49450;SDS011;35336;48.400;10.886;2024-03-02T00:19:57;16.93;;;14.43;;
49450;SDS011;35336;48.400;10.886;2024-03-02T00:20:12;17.50;;;14.50;;
49450;SDS011;35336;48.400;10.886;2024-03-02T00:20:39;16.65;;;14.32;;
49450;SDS011;35336;48.400;10.886;2024-03-02T00:20:57;17.25;;;14.95;;
49450;SDS011;35336;48.400;10.886;2024-03-02T00:21:13;16.27;;;14.25;;
49450;SDS011;35336;48.400;10.886;2024-03-02T00:21:29;17.83;;;14.25;;
49450;SDS011;35336;48.400;10.886;2024-03-02T00:21:46;18.88;;;14.25;;
49450;SDS011;35336;48.400;10.886;2024-03-02T00:22:01;17.40;;;13.87;;
49450;SDS011;35336;48.400;10.886;2024-03-02T00:22:17;15.98;;;13.45;;
49450;SDS011;35336;48.400;10.886;2024-03-02T00:22:34;16.93;;;14.17;;
49450;SDS011;35336;48.400;10.886;2024-03-02T00:22:50;17.55;;;14.68;;
49450;SDS011;35336;48.400;10.886;2024-03-02T00:23:06;18.97;;;15.17;;
49450;SDS011;35336;48.400;10.886;2024-03-02T00:23:23;26.90;;;19.40;;
49450;SDS011;35336;48.400;10.886;2024-03-02T00:23:42;61.83;;;39.28;;
49450;SDS011;35336;48.400;10.886;2024-03-02T00:23:57;85.80;;;51.70;;
49450;SDS011;35336;48.400;10.886;2024-03-02T00:24:20;179.63;;;104.22;;
49450;SDS011;35336;48.400;10.886;2024-03-02T00:24:36;221.27;;;126.43;;
49450;SDS011;35336;48.400;10.886;2024-03-02T00:24:52;153.93;;;87.53;;
49450;SDS011;35336;48.400;10.886;2024-03-02T00:25:07;124.43;;;72.47;;
49450;SDS011;35336;48.400;10.886;2024-03-02T00:25:23;109.63;;;64.40;;
49450;SDS011;35336;48.400;10.886;2024-03-02T00:25:59;106.72;;;65.22;;
49450;SDS011;35336;48.400;10.886;2024-03-02T00:26:15;138.73;;;82.30;;
49450;SDS011;35336;48.400;10.886;2024-03-02T00:26:30;142.73;;;83.53;;
49450;SDS011;35336;48.400;10.886;2024-03-02T00:26:48;129.88;;;75.43;;
49450;SDS011;35336;48.400;10.886;2024-03-02T00:27:03;113.60;;;63.00;;
49450;SDS011;35336;48.400;10.886;2024-03-02T00:27:21;101.65;;;56.65;;
49450;SDS011;35336;48.400;10.886;2024-03-02T00:27:37;91.70;;;51.87;;
49450;SDS011;35336;48.400;10.886;2024-03-02T00:27:52;94.22;;;49.55;;
49450;SDS011;35336;48.400;10.886;2024-03-02T00:28:14;98.87;;;48.70;;
49450;SDS011;35336;48.400;10.886;2024-03-02T00:28:35;84.00;;;40.95;;
49450;SDS011;35336;48.400;10.886;2024-03-02T00:28:53;82.32;;;41.88;;
49450;SDS011;35336;48.400;10.886;2024-03-02T00:29:10;73.75;;;39.15;;
49450;SDS011;35336;48.400;10.886;2024-03-02T00:29:26;66.55;;;35.67;;
49450;SDS011;35336;48.400;10.886;2024-03-02T00:29:43;61.53;;;34.30;;
49450;SDS011;35336;48.400;10.886;2024-03-02T00:30:00;77.23;;;42.47;;
49450;SDS011;35336;48.400;10.886;2024-03-02T00:30:34;116.68;;;64.38;;
49450;SDS011;35336;48.400;10.886;2024-03-02T00:31:10;114.68;;;76.95;;
49450;SDS011;35336;48.400;10.886;2024-03-02T00:31:28;88.20;;;57.58;;
49450;SDS011;35336;48.400;10.886;2024-03-02T00:31:43;73.35;;;48.03;;
49450;SDS011;35336;48.400;10.886;2024-03-02T00:31:59;67.40;;;45.00;;
49450;SDS011;35336;48.400;10.886;2024-03-02T00:32:16;56.95;;;38.80;;
49450;SDS011;35336;48.400;10.886;2024-03-02T00:32:34;49.30;;;33.97;;
49450;SDS011;35336;48.400;10.886;2024-03-02T00:32:50;44.80;;;31.08;;
49450;SDS011;35336;48.400;10.886;2024-03-02T00:33:06;37.38;;;27.08;;
49450;SDS011;35336;48.400;10.886;2024-03-02T00:33:22;31.52;;;24.02;;
49450;SDS011;35336;48.400;10.886;2024-03-02T00:33:57;25.33;;;20.88;;
49450;SDS011;35336;48.400;10.886;2024-03-02T00:34:19;23.33;;;20.35;;
49450;SDS011;35336;48.400;10.886;2024-03-02T00:34:35;25.02;;;22.20;;
49450;SDS011;35336;48.400;10.886;2024-03-02T00:34:50;24.33;;;20.97;;
49450;SDS011;35336;48.400;10.886;2024-03-02T00:35:05;23.80;;;20.47;;
49450;SDS011;35336;48.400;10.886;2024-03-02T00:35:20;24.20;;;20.50;;
49450;SDS011;35336;48.400;10.886;2024-03-02T00:35:38;22.05;;;19.08;;
49450;SDS011;35336;48.400;10.886;2024-03-02T00:35:53;20.53;;;18.30;;
49450;SDS011;35336;48.400;10.886;2024-03-02T00:36:11;20.60;;;18.40;;
49450;SDS011;35336;48.400;10.886;2024-03-02T00:36:30;19.40;;;17.00;;
49450;SDS011;35336;48.400;10.886;2024-03-02T00:36:45;19.00;;;16.00;;
49450;SDS011;35336;48.400;10.886;2024-03-02T00:37:00;19.00;;;15.90;;
49450;SDS011;35336;48.400;10.886;2024-03-02T00:37:16;18.10;;;15.70;;
49450;SDS011;35336;48.400;10.886;2024-03-02T00:37:31;19.50;;;15.60;;
49450;SDS011;35336;48.400;10.886;2024-03-02T00:37:46;20.20;;;16.33;;
49450;SDS011;35336;48.400;10.886;2024-03-02T00:38:05;19.20;;;17.00;;
49450;SDS011;35336;48.400;10.886;2024-03-02T00:38:21;18.02;;;16.05;;
49450;SDS011;35336;48.400;10.886;2024-03-02T00:38:49;17.08;;;14.48;;
49450;SDS011;35336;48.400;10.886;2024-03-02T00:39:05;15.80;;;13.98;;
49450;SDS011;35336;48.400;10.886;2024-03-02T00:39:20;17.27;;;15.15;;
49450;SDS011;35336;48.400;10.886;2024-03-02T00:39:35;17.80;;;15.37;;
49450;SDS011;35336;48.400;10.886;2024-03-02T00:39:53;16.55;;;14.27;;
49450;SDS011;35336;48.400;10.886;2024-03-02T00:40:08;16.70;;;14.25;;
49450;SDS011;35336;48.400;10.886;2024-03-02T00:40:27;17.25;;;14.25;;
49450;SDS011;35336;48.400;10.886;2024-03-02T00:40:44;17.20;;;14.20;;
49450;SDS011;35336;48.400;10.886;2024-03-02T00:41:03;15.70;;;13.30;;
49450;SDS011;35336;48.400;10.886;2024-03-02T00:41:32;15.75;;;13.32;;
49450;SDS011;35336;48.400;10.886;2024-03-02T00:41:47;15.73;;;13.20;;
49450;SDS011;35336;48.400;10.886;2024-03-02T00:42:02;16.20;;;12.70;;
49450;SDS011;35336;48.400;10.886;2024-03-02T00:42:18;15.02;;;12.55;;
49450;SDS011;35336;48.400;10.886;2024-03-02T00:42:33;13.87;;;12.37;;
49450;SDS011;35336;48.400;10.886;2024-03-02T00:42:48;13.87;;;12.27;;
49450;SDS011;35336;48.400;10.886;2024-03-02T00:43:04;14.00;;;12.23;;
49450;SDS011;35336;48.400;10.886;2024-03-02T00:44:27;15.23;;;13.15;;
49450;SDS011;35336;48.400;10.886;2024-03-02T00:44:44;15.73;;;13.32;;
49450;SDS011;35336;48.400;10.886;2024-03-02T00:45:00;15.40;;;13.00;;
49450;SDS011;35336;48.400;10.886;2024-03-02T00:45:17;15.33;;;12.43;;
49450;SDS011;35336;48.400;10.886;2024-03-02T00:45:33;15.95;;;12.82;;
49450;SDS011;35336;48.400;10.886;2024-03-02T00:45:48;15.33;;;12.97;;
49450;SDS011;35336;48.400;10.886;2024-03-02T00:46:03;15.47;;;13.17;;
49450;SDS011;35336;48.400;10.886;2024-03-02T00:46:19;15.90;;;13.27;;
49450;SDS011;35336;48.400;10.886;2024-03-02T00:46:35;16.23;;;12.50;;
49450;SDS011;35336;48.400;10.886;2024-03-02T00:46:51;16.52;;;12.88;;
49450;SDS011;35336;48.400;10.886;2024-03-02T00:47:08;16.17;;;13.07;;
49450;SDS011;35336;48.400;10.886;2024-03-02T00:47:23;15.07;;;12.97;;
49450;SDS011;35336;48.400;10.886;2024-03-02T00:47:39;15.10;;;13.37;;
49450;SDS011;35336;48.400;10.886;2024-03-02T00:47:54;14.85;;;13.25;;
49450;SDS011;35336;48.400;10.886;2024-03-02T00:48:09;16.03;;;13.37;;
49450;SDS011;35336;48.400;10.886;2024-03-02T00:48:24;18.37;;;14.03;;
49450;SDS011;35336;48.400;10.886;2024-03-02T00:48:44;18.17;;;14.80;;
49450;SDS011;35336;48.400;10.886;2024-03-02T00:49:20;17.08;;;15.05;;
49450;SDS011;35336;48.400;10.886;2024-03-02T00:49:39;16.13;;;13.75;;
49450;SDS011;35336;48.400;10.886;2024-03-02T00:49:54;16.87;;;13.50;;
49450;SDS011;35336;48.400;10.886;2024-03-02T00:50:09;16.35;;;13.38;;
49450;SDS011;35336;48.400;10.886;2024-03-02T00:50:25;15.37;;;13.53;;
49450;SDS011;35336;48.400;10.886;2024-03-02T00:50:40;15.40;;;13.30;;
49450;SDS011;35336;48.400;10.886;2024-03-02T00:50:55;15.87;;;13.43;;
49450;SDS011;35336;48.400;10.886;2024-03-02T00:51:10;16.20;;;13.38;;
49450;SDS011;35336;48.400;10.886;2024-03-02T00:51:27;15.77;;;12.53;;
49450;SDS011;35336;48.400;10.886;2024-03-02T00:51:44;14.80;;;12.82;;
49450;SDS011;35336;48.400;10.886;2024-03-02T00:52:01;15.35;;;13.50;;
49450;SDS011;35336;48.400;10.886;2024-03-02T00:52:17;16.00;;;13.75;;
49450;SDS011;35336;48.400;10.886;2024-03-02T00:52:32;16.00;;;13.70;;
49450;SDS011;35336;48.400;10.886;2024-03-02T00:52:48;15.77;;;13.97;;
49450;SDS011;35336;48.400;10.886;2024-03-02T00:53:03;15.95;;;14.05;;
49450;SDS011;35336;48.400;10.886;2024-03-02T00:53:20;16.27;;;13.90;;
49450;SDS011;35336;48.400;10.886;2024-03-02T00:53:38;16.35;;;13.77;;
49450;SDS011;35336;48.400;10.886;2024-03-02T00:53:54;15.98;;;13.75;;
49450;SDS011;35336;48.400;10.886;2024-03-02T00:54:10;15.88;;;13.65;;
49450;SDS011;35336;48.400;10.886;2024-03-02T00:54:25;15.77;;;13.40;;
49450;SDS011;35336;48.400;10.886;2024-03-02T00:54:41;15.75;;;13.25;;
49450;SDS011;35336;48.400;10.886;2024-03-02T00:54:56;15.27;;;13.07;;
49450;SDS011;35336;48.400;10.886;2024-03-02T00:55:12;14.93;;;13.33;;
49450;SDS011;35336;48.400;10.886;2024-03-02T00:55:27;15.47;;;13.33;;
49450;SDS011;35336;48.400;10.886;2024-03-02T00:55:43;15.38;;;12.35;;
49450;SDS011;35336;48.400;10.886;2024-03-02T00:55:58;15.93;;;12.30;;
49450;SDS011;35336;48.400;10.886;2024-03-02T00:56:14;15.63;;;12.80;;
49450;SDS011;35336;48.400;10.886;2024-03-02T00:56:30;15.40;;;13.20;;
49450;SDS011;35336;48.400;10.886;2024-03-02T00:56:46;15.10;;;12.95;;
49450;SDS011;35336;48.400;10.886;2024-03-02T00:57:05;15.73;;;12.52;;
49450;SDS011;35336;48.400;10.886;2024-03-02T00:57:20;16.13;;;12.73;;
49450;SDS011;35336;48.400;10.886;2024-03-02T00:57:35;15.03;;;13.00;;
49450;SDS011;35336;48.400;10.886;2024-03-02T00:57:53;14.57;;;12.60;;
49450;SDS011;35336;48.400;10.886;2024-03-02T00:58:08;14.07;;;12.37;;
49450;SDS011;35336;48.400;10.886;2024-03-02T00:58:24;14.20;;;12.30;;
49450;SDS011;35336;48.400;10.886;2024-03-02T00:58:39;14.77;;;12.23;;
49450;SDS011;35336;48.400;10.886;2024-03-02T00:58:54;15.18;;;12.32;;
49450;SDS011;35336;48.400;10.886;2024-03-02T00:59:10;14.27;;;12.10;;
49450;SDS011;35336;48.400;10.886;2024-03-02T00:59:26;13.45;;;11.73;;
49450;SDS011;35336;48.400;10.886;2024-03-02T00:59:41;13.93;;;12.10;;
49450;SDS011;35336;48.400;10.886;2024-03-02T00:59:56;14.20;;;12.70;;
49450;SDS011;35336;48.400;10.886;2024-03-02T01:00:12;14.68;;;13.02;;
49450;SDS011;35336;48.400;10.886;2024-03-02T01:00:30;15.00;;;12.60;;
49450;SDS011;35336;48.400;10.886;2024-03-02T01:00:47;14.00;;;12.07;;
49450;SDS011;35336;48.400;10.886;2024-03-02T01:01:03;14.85;;;12.70;;
49450;SDS011;35336;48.400;10.886;2024-03-02T01:01:18;15.67;;;13.10;;
49450;SDS011;35336;48.400;10.886;2024-03-02T01:01:34;16.17;;;12.80;;
49450;SDS011;35336;48.400;10.886;2024-03-02T01:01:49;14.70;;;12.23;;
49450;SDS011;35336;48.400;10.886;2024-03-02T01:02:05;13.77;;;12.15;;
49450;SDS011;35336;48.400;10.886;2024-03-02T01:02:20;13.60;;;12.17;;
49450;SDS011;35336;48.400;10.886;2024-03-02T01:02:35;13.93;;;12.20;;
49450;SDS011;35336;48.400;10.886;2024-03-02T01:02:53;13.77;;;12.10;;
49450;SDS011;35336;48.400;10.886;2024-03-02T01:03:08;14.00;;;12.50;;
49450;SDS011;35336;48.400;10.886;2024-03-02T01:03:23;14.97;;;12.80;;
49450;SDS011;35336;48.400;10.886;2024-03-02T01:03:41;15.73;;;11.93;;
49450;SDS011;35336;48.400;10.886;2024-03-02T01:03:56;14.77;;;11.60;;
49450;SDS011;35336;48.400;10.886;2024-03-02T01:04:11;14.07;;;12.40;;
49450;SDS011;35336;48.400;10.886;2024-03-02T01:04:27;14.87;;;13.00;;
49450;SDS011;35336;48.400;10.886;2024-03-02T01:04:44;15.33;;;12.70;;
49450;SDS011;35336;48.400;10.886;2024-03-02T01:04:59;15.40;;;12.60;;
49450;SDS011;35336;48.400;10.886;2024-03-02T01:05:14;14.90;;;12.85;;
49450;SDS011;35336;48.400;10.886;2024-03-02T01:05:30;14.70;;;13.10;;
49450;SDS011;35336;48.400;10.886;2024-03-02T01:05:45;15.30;;;13.17;;
49450;SDS011;35336;48.400;10.886;2024-03-02T01:06:00;17.03;;;13.47;;
49450;SDS011;35336;48.400;10.886;2024-03-02T01:06:16;16.90;;;13.52;;
49450;SDS011;35336;48.400;10.886;2024-03-02T01:06:31;15.33;;;13.50;;
49450;SDS011;35336;48.400;10.886;2024-03-02T01:06:47;15.73;;;13.60;;
49450;SDS011;35336;48.400;10.886;2024-03-02T01:07:02;15.90;;;13.55;;
49450;SDS011;35336;48.400;10.886;2024-03-02T01:07:17;15.13;;;13.07;;
49450;SDS011;35336;48.400;10.886;2024-03-02T01:07:32;14.97;;;12.60;;
49450;SDS011;35336;48.400;10.886;2024-03-02T01:07:48;14.60;;;12.50;;
49450;SDS011;35336;48.400;10.886;2024-03-02T01:08:06;14.80;;;12.45;;
49450;SDS011;35336;48.400;10.886;2024-03-02T01:08:21;14.98;;;12.38;;
49450;SDS011;35336;48.400;10.886;2024-03-02T01:08:36;15.77;;;13.17;;
49450;SDS011;35336;48.400;10.886;2024-03-02T01:08:53;15.68;;;13.43;;
49450;SDS011;35336;48.400;10.886;2024-03-02T01:09:09;15.07;;;13.37;;
49450;SDS011;35336;48.400;10.886;2024-03-02T01:09:24;15.07;;;12.90;;
49450;SDS011;35336;48.400;10.886;2024-03-02T01:09:39;16.33;;;13.07;;
49450;SDS011;35336;48.400;10.886;2024-03-02T01:09:55;15.38;;;13.07;;
49450;SDS011;35336;48.400;10.886;2024-03-02T01:10:10;14.67;;;12.87;;
49450;SDS011;35336;48.400;10.886;2024-03-02T01:10:25;14.67;;;12.27;;
49450;SDS011;35336;48.400;10.886;2024-03-02T01:10:40;15.50;;;12.37;;
49450;SDS011;35336;48.400;10.886;2024-03-02T01:10:56;15.48;;;12.77;;
49450;SDS011;35336;48.400;10.886;2024-03-02T01:11:11;14.03;;;12.40;;
49450;SDS011;35336;48.400;10.886;2024-03-02T01:11:26;14.63;;;12.27;;
49450;SDS011;35336;48.400;10.886;2024-03-02T01:11:42;14.38;;;12.13;;
49450;SDS011;35336;48.400;10.886;2024-03-02T01:11:57;14.75;;;12.40;;
49450;SDS011;35336;48.400;10.886;2024-03-02T01:12:12;15.17;;;12.80;;
49450;SDS011;35336;48.400;10.886;2024-03-02T01:12:27;13.93;;;12.50;;
49450;SDS011;35336;48.400;10.886;2024-03-02T01:12:43;14.50;;;12.70;;
49450;SDS011;35336;48.400;10.886;2024-03-02T01:12:58;15.32;;;12.82;;
49450;SDS011;35336;48.400;10.886;2024-03-02T01:13:13;13.83;;;12.00;;
49450;SDS011;35336;48.400;10.886;2024-03-02T01:13:29;14.27;;;11.93;;
49450;SDS011;35336;48.400;10.886;2024-03-02T01:13:44;14.48;;;12.10;;
49450;SDS011;35336;48.400;10.886;2024-03-02T01:14:00;13.70;;;11.97;;
49450;SDS011;35336;48.400;10.886;2024-03-02T01:14:15;13.63;;;12.10;;
49450;SDS011;35336;48.400;10.886;2024-03-02T01:14:30;14.02;;;11.98;;
49450;SDS011;35336;48.400;10.886;2024-03-02T01:14:46;13.60;;;11.93;;
49450;SDS011;35336;48.400;10.886;2024-03-02T01:15:01;14.17;;;12.67;;
49450;SDS011;35336;48.400;10.886;2024-03-02T01:15:16;14.87;;;12.90;;
49450;SDS011;35336;48.400;10.886;2024-03-02T01:15:32;14.93;;;12.85;;
49450;SDS011;35336;48.400;10.886;2024-03-02T01:15:50;14.70;;;12.82;;
49450;SDS011;35336;48.400;10.886;2024-03-02T01:16:05;14.53;;;12.43;;
49450;SDS011;35336;48.400;10.886;2024-03-02T01:16:23;13.68;;;11.90;;
49450;SDS011;35336;48.400;10.886;2024-03-02T01:16:41;13.48;;;11.85;;
49450;SDS011;35336;48.400;10.886;2024-03-02T01:16:56;14.10;;;11.83;;
49450;SDS011;35336;48.400;10.886;2024-03-02T01:17:13;14.70;;;12.30;;
49450;SDS011;35336;48.400;10.886;2024-03-02T01:17:29;13.93;;;12.43;;
49450;SDS011;35336;48.400;10.886;2024-03-02T01:17:44;13.52;;;12.13;;
49450;SDS011;35336;48.400;10.886;2024-03-02T01:17:59;13.83;;;12.43;;
49450;SDS011;35336;48.400;10.886;2024-03-02T01:18:17;13.90;;;12.43;;
49450;SDS011;35336;48.400;10.886;2024-03-02T01:18:35;14.13;;;12.40;;
49450;SDS011;35336;48.400;10.886;2024-03-02T01:18:50;13.70;;;12.05;;
49450;SDS011;35336;48.400;10.886;2024-03-02T01:19:05;13.63;;;12.20;;
49450;SDS011;35336;48.400;10.886;2024-03-02T01:19:20;14.50;;;12.35;;
49450;SDS011;35336;48.400;10.886;2024-03-02T01:19:36;14.30;;;12.50;;
49450;SDS011;35336;48.400;10.886;2024-03-02T01:19:53;13.65;;;12.23;;
49450;SDS011;35336;48.400;10.886;2024-03-02T01:20:08;13.70;;;12.18;;
49450;SDS011;35336;48.400;10.886;2024-03-02T01:20:27;13.93;;;12.02;;
49450;SDS011;35336;48.400;10.886;2024-03-02T01:20:42;13.63;;;11.73;;
49450;SDS011;35336;48.400;10.886;2024-03-02T01:20:57;16.30;;;11.93;;
49450;SDS011;35336;48.400;10.886;2024-03-02T01:21:13;16.70;;;12.48;;
49450;SDS011;35336;48.400;10.886;2024-03-02T01:21:28;14.13;;;12.37;;
49450;SDS011;35336;48.400;10.886;2024-03-02T01:21:43;13.87;;;12.17;;
49450;SDS011;35336;48.400;10.886;2024-03-02T01:21:59;14.17;;;12.67;;
49450;SDS011;35336;48.400;10.886;2024-03-02T01:22:14;14.13;;;12.63;;
49450;SDS011;35336;48.400;10.886;2024-03-02T01:22:29;13.63;;;11.90;;
49450;SDS011;35336;48.400;10.886;2024-03-02T01:22:44;14.10;;;12.17;;
49450;SDS011;35336;48.400;10.886;2024-03-02T01:23:02;14.50;;;12.77;;
49450;SDS011;35336;48.400;10.886;2024-03-02T01:23:21;13.75;;;12.18;;
49450;SDS011;35336;48.400;10.886;2024-03-02T01:23:37;14.85;;;12.50;;
49450;SDS011;35336;48.400;10.886;2024-03-02T01:23:52;14.35;;;12.20;;
49450;SDS011;35336;48.400;10.886;2024-03-02T01:24:07;14.97;;;11.83;;
49450;SDS011;35336;48.400;10.886;2024-03-02T01:24:23;16.23;;;12.03;;
49450;SDS011;35336;48.400;10.886;2024-03-02T01:24:40;16.30;;;11.93;;
49450;SDS011;35336;48.400;10.886;2024-03-02T01:24:55;15.23;;;11.97;;
49450;SDS011;35336;48.400;10.886;2024-03-02T01:25:11;14.57;;;12.15;;
49450;SDS011;35336;48.400;10.886;2024-03-02T01:25:26;14.50;;;12.27;;
49450;SDS011;35336;48.400;10.886;2024-03-02T01:25:41;15.47;;;12.30;;
49450;SDS011;35336;48.400;10.886;2024-03-02T01:25:56;15.90;;;12.17;;
49450;SDS011;35336;48.400;10.886;2024-03-02T01:26:12;15.60;;;12.03;;
49450;SDS011;35336;48.400;10.886;2024-03-02T01:26:27;15.35;;;12.30;;
49450;SDS011;35336;48.400;10.886;2024-03-02T01:26:42;14.90;;;12.67;;
49450;SDS011;35336;48.400;10.886;2024-03-02T01:26:57;14.37;;;11.60;;
49450;SDS011;35336;48.400;10.886;2024-03-02T01:27:15;14.17;;;11.60;;
49450;SDS011;35336;48.400;10.886;2024-03-02T01:27:33;14.82;;;12.50;;
49450;SDS011;35336;48.400;10.886;2024-03-02T01:27:48;15.63;;;12.60;;
49450;SDS011;35336;48.400;10.886;2024-03-02T01:28:05;13.77;;;12.23;;
49450;SDS011;35336;48.400;10.886;2024-03-02T01:28:21;13.20;;;11.80;;
49450;SDS011;35336;48.400;10.886;2024-03-02T01:28:36;13.23;;;11.83;;
49450;SDS011;35336;48.400;10.886;2024-03-02T01:28:51;13.30;;;11.60;;
49450;SDS011;35336;48.400;10.886;2024-03-02T01:29:06;13.25;;;11.63;;
49450;SDS011;35336;48.400;10.886;2024-03-02T01:29:22;12.73;;;11.43;;
49450;SDS011;35336;48.400;10.886;2024-03-02T01:29:39;13.13;;;11.53;;
49450;SDS011;35336;48.400;10.886;2024-03-02T01:29:54;13.07;;;11.68;;
49450;SDS011;35336;48.400;10.886;2024-03-02T01:30:09;13.30;;;11.70;;
49450;SDS011;35336;48.400;10.886;2024-03-02T01:30:27;13.80;;;11.85;;
49450;SDS011;35336;48.400;10.886;2024-03-02T01:30:43;13.68;;;11.90;;
49450;SDS011;35336;48.400;10.886;2024-03-02T01:30:58;13.70;;;12.15;;
49450;SDS011;35336;48.400;10.886;2024-03-02T01:31:13;12.60;;;11.30;;
49450;SDS011;35336;48.400;10.886;2024-03-02T01:31:29;13.17;;;11.63;;
49450;SDS011;35336;48.400;10.886;2024-03-02T01:31:44;13.98;;;12.23;;
49450;SDS011;35336;48.400;10.886;2024-03-02T01:31:59;13.33;;;11.93;;
49450;SDS011;35336;48.400;10.886;2024-03-02T01:32:14;13.83;;;11.73;;
49450;SDS011;35336;48.400;10.886;2024-03-02T01:32:30;13.60;;;11.80;;
49450;SDS011;35336;48.400;10.886;2024-03-02T01:32:45;12.80;;;11.50;;
49450;SDS011;35336;48.400;10.886;2024-03-02T01:33:00;12.35;;;11.05;;
49450;SDS011;35336;48.400;10.886;2024-03-02T01:33:19;12.82;;;10.95;;
49450;SDS011;35336;48.400;10.886;2024-03-02T01:33:35;14.18;;;11.55;;
49450;SDS011;35336;48.400;10.886;2024-03-02T01:33:50;13.83;;;11.93;;
49450;SDS011;35336;48.400;10.886;2024-03-02T01:34:05;13.30;;;11.90;;
49450;SDS011;35336;48.400;10.886;2024-03-02T01:34:20;13.00;;;11.52;;
49450;SDS011;35336;48.400;10.886;2024-03-02T01:34:36;12.83;;;10.70;;
49450;SDS011;35336;48.400;10.886;2024-03-02T01:34:51;12.77;;;10.87;;
49450;SDS011;35336;48.400;10.886;2024-03-02T01:35:06;13.13;;;11.60;;
49450;SDS011;35336;48.400;10.886;2024-03-02T01:35:22;13.18;;;11.75;;
49450;SDS011;35336;48.400;10.886;2024-03-02T01:35:37;13.03;;;11.63;;
49450;SDS011;35336;48.400;10.886;2024-03-02T01:35:52;13.67;;;12.10;;
49450;SDS011;35336;48.400;10.886;2024-03-02T01:36:10;14.03;;;11.90;;
49450;SDS011;35336;48.400;10.886;2024-03-02T01:36:25;13.48;;;11.35;;
49450;SDS011;35336;48.400;10.886;2024-03-02T01:36:40;13.33;;;11.43;;
49450;SDS011;35336;48.400;10.886;2024-03-02T01:36:55;12.73;;;10.97;;
49450;SDS011;35336;48.400;10.886;2024-03-02T01:37:11;13.13;;;11.30;;